Página principal
METAR-TAF:

METAR-TAF

Aeroportos :

Rarotonga, Ilhas Cook

latitude: 21-12S, longitude: 159-49W, altura: 7 m

Observação actual do tempo

O boletim foi feito há 22 minutos, às 00:00 UTC
Vento 8 kt de es-nordeste
Temperatura 28°C
Humidade 70%
Pressão 1016 hPa
Visibilidade 10 km ou mais
Poucas nuvensa uma altura de 2300 ft

METAR: NCRG 260000Z 06008KT 9999 FEW023 28/22 Q1016

Hora: 14:22 (00:22 UTC)

Previsão

O boletim foi feito há 58 minutos, às 23:24 UTC
Previsão válida de 26 às 00 UTC a 26 às 24 UTC
Vento 8 kt de nordeste
Visibilidade 10 km ou mais
Nuvens dispersasa uma altura de 2000 ft

TAF: NCRG 252324Z 2600/2624 04008KT 9999 SCT020

Observações e previsões do tempo de mais de 4000 aeroportos (mensagens METAR e TAF).

As estações disponíveis são os pontos amarelos e vermelhos sobre o mapa.

Mova o rato sobre o mapa para ver o nome da estação.

Depois clique no ponto para visualizar as observações e previsões meteorológicas.

Para alterar o mapa : clique nos botões verdes com uma cruz preta para aumentar o zoom; no botão verde com uma pitada de zoom; ou nas setas verdes para mapas adjacentes.


METAR-TAF: